Los Coyotes, Texas
Current Conditions -  °F | °C
As of 5:52 AM on Sunday 25 Jan 2015 (Local Time) from KHRL Reporting Station
Clear Clear  
Wind Chill: 43°   Ceiling: Unl
Heat Index: 48°   Visibility: 10mi
Dew Point: 41°   Wind: 10mph
Humidity: 77%   Direction: 210°SSW
Pressure: 30.1"   Gusts: NA
Location:  26.4075°N, 97.7282°W
Report Text: KHRL 251152Z 21009KT 10SM CLR 09/05 A3010 RMK AO2 SLP191 T00890050 10106 20072 56015
Loading
Personal Weather Stations






























Interactive Weather Map New forecast layout! Learn more

10-Day Weather Forecast

Advertisements
Track Severe Weather on mobile